Fay, OK (73646)

3:47 AM CDT on August 26, 2016 (GMT -0500)
East Hughes and 5th Street | | Change Station
Active Advisory: Areal Flood Watch Active Notice: Local Storm Report

Elev 1788 ft 35.75 °N, 98.74 °W | Updated 25 seconds ago

Overcast
Overcast
68.7 °F
Feels Like 68.7 °F
N
5.1
Wind Variable Wind from WSW
Gusts 7.4 mph

Today
High -- | Low -- °F
--% Chance of Precip.
Yesterday
High -- | Low -- °F
Precip. -- in
Pressure 30.10 in
Visibility 7.0 miles
Clouds Overcast 100 ft
Dew Point 68 °F
Humidity 99%
Rainfall 0.91 in
Snow Depth Not available.
7:02 AM 8:09 PM
Last Quarter, 36% visible
METAR KJWG 260835Z AUTO 09007KT 7SM OVC001 20/20 A3010 RMK AO2 LTG DSNT SW T02000200
Pressure 30.10 in
Visibility 7.0 miles
Clouds Overcast 100 ft
Dew Point 68 °F
Humidity 99%
Rainfall 0.91 in
Snow Depth Not available.
7:02 AM 8:09 PM
Last Quarter, 36% visible
METAR KJWG 260835Z AUTO 09007KT 7SM OVC001 20/20 A3010 RMK AO2 LTG DSNT SW T02000200

10-Day Weather Forecast

Almanac

Astronomy

Aug. 26, 2016 Rise Set
Actual Time
Civil Twilight
Nautical Twilight
Astronomical Twilight
Moon
Length of Visible Light
Length of Day
Tomorrow will be .
, % of the Moon is Illuminated

Today's Extremes

State Highs State Lows

Community

WunderPhotos

Upload Photos

1,935,062 photos uploaded!

WunderBlog® & News

Nearby

Air Quality

  Air Quality AQ Index Pollutant
Not available.

Snow Depth

Station Depth Elevation

Earthquake Activity

City Distance Mag. Time & Date
Minimum magnitude displayed is 2.5.

Coastal Water Temperatures

Place Temperature

Stations

Nearby Weather Stations

Station Location Temp. Windchill Dew Point Humidity Wind Precip. Elev Updated Type
                   

Watches & Warnings

Areal Flood Watch
Issued: 2:50 PM CDT Aug. 25, 2016 – National Weather Service

... Flood Watch remains in effect through Friday morning...

The Flood Watch for flash flooding... flooding of creeks and
rivers... and flooding of low lying areas continues for

* portions of northern Oklahoma... northwest Oklahoma and western
Oklahoma... including the following areas... in northern
Oklahoma... Garfield... Grant and Kay. In northwest Oklahoma...
Alfalfa... Blaine... Dewey and major. In western Oklahoma...
Custer and Roger Mills.

* Through Friday morning

* locally heavy rainfall will be possible this evening and
overnight.

* Localized areas of 1 to 3 inches of rainfall will be possible.

Precautionary/preparedness actions...

Monitor weather forecasts and information. Make plans to get to
higher ground if flooding happens.



Cms/Kurtz